Buoy 54955

sailwx.info

Track history (hours):
 
Tides and Currents Weather Stations Pressure Air Temp Water Temp Dewpoint Dewpoint Depression Visibility Wind Speed Wind Dir Waves Ship Positions

Drifting buoy 54955

Last reported at 2017-Sep-25 18:00 UTC. Time now 2017-Sep-25 19:04 UTC.
Position S 33°55' W 144°37'.

Barometer 1013.1 mb
Water temperature 16.0 ° C

Date/timePositionNaut miles runAvg speedWind from/ knotsBaromVisibWave heightAir tempDewpointWater temp
2017-Sep-25 18:00S 33°55' W 144°37'1 0.6 1013.1 16.0
2017-Sep-25 17:00S 33°56' W 144°37'1 0.6 1013.0 16.0
2017-Sep-25 16:00S 33°56' W 144°37'0 0.5 1012.6 16.0
2017-Sep-25 15:00S 33°56' W 144°38'0 0.0 1012.0 16.0
2017-Sep-25 14:00S 33°56' W 144°38'1 0.6 1011.3 15.9
2017-Sep-25 13:00S 33°57' W 144°38'0 0.0 1010.9 15.9
2017-Sep-25 12:00S 33°57' W 144°38'0 0.5 1011.0 15.9
2017-Sep-25 11:00S 33°57' W 144°38'1 0.3 1011.0 15.9
2017-Sep-25 07:00S 33°58' W 144°38'2 2.3 1011.1 15.9
2017-Sep-25 06:00S 33°59' W 144°40'0 0.0 1010.9 15.9
2017-Sep-25 05:00S 33°59' W 144°40'0 0.5 1010.8 16.0
2017-Sep-25 04:00S 33°59' W 144°40'1 0.8 1010.2 16.0
2017-Sep-25 03:00S 34°00' W 144°40'1 1.5 1009.6 16.0
2017-Sep-25 02:00S 34°00' W 144°42'0 0.0 1009.1 16.0
2017-Sep-25 01:00S 34°00' W 144°42'0 0.0 1008.9 16.0
2017-Sep-25 00:00S 34°00' W 144°42'0 0.0 1008.5 16.0
2017-Sep-24 23:00S 34°00' W 144°42'3 0.7 1009.0 16.0
2017-Sep-24 19:00S 34°00' W 144°46'1 1.5 1010.0 16.0
2017-Sep-24 18:00S 34°00' W 144°47'0 0.5 1009.8 16.0
2017-Sep-24 17:00S 34°00' W 144°48'1 0.8 1009.6 16.0
2017-Sep-24 16:00S 33°59' W 144°47'3 2.6 1009.2 16.0
2017-Sep-24 15:00S 33°59' W 144°50'0 0.0 1008.7 16.0
2017-Sep-24 14:00S 33°59' W 144°50'0 0.0 1008.3 16.0
2017-Sep-24 13:00S 33°59' W 144°50'1 1.3 1008.6 16.0
2017-Sep-24 12:00S 33°58' W 144°51'2 2.4 1009.4 16.0
2017-Sep-24 11:00S 33°55' W 144°51'0 0.0 1010.3 16.0
2017-Sep-24 09:00S 33°55' W 144°51'1 0.6 1011.1 15.8
2017-Sep-24 08:00S 33°55' W 144°51'1 1.2 1011.3 15.8
2017-Sep-24 07:00S 33°55' W 144°52'1 0.6 1011.5 15.8
2017-Sep-24 06:00S 33°55' W 144°52'0 0.0 1011.3 15.9
2017-Sep-24 05:00S 33°55' W 144°52'1 1.0 1011.1 15.9
2017-Sep-24 04:00S 33°55' W 144°53'1 1.2 1010.4 15.9
2017-Sep-24 03:00S 33°54' W 144°55'0 0.5 1010.2 16.0
2017-Sep-24 02:00S 33°54' W 144°54'1 1.2 1009.8 16.0
2017-Sep-24 01:00S 33°53' W 144°55'0 0.0 1009.7 16.0
2017-Sep-24 00:00S 33°53' W 144°55'4 0.8 1009.7 15.9
2017-Sep-23 19:00S 33°50' W 144°58'0 0.0 1010.5 15.8
2017-Sep-23 18:00S 33°50' W 144°58'0 0.5 1010.3 15.8
2017-Sep-23 17:00S 33°50' W 144°59'1 0.6 1010.0 15.8
2017-Sep-23 16:00S 33°50' W 144°59'0 0.5 1009.2 15.7
2017-Sep-23 15:00S 33°50' W 144°59'1 1.2 1008.9 15.7
2017-Sep-23 14:00S 33°49' W 145°01'1 1.5 1008.2 15.7
2017-Sep-23 13:00S 33°49' W 145°02'0 0.0 1007.8 15.6
2017-Sep-23 12:00S 33°49' W 145°02'4 0.8 1007.8 15.6
2017-Sep-23 07:00S 33°48' W 145°07'1 0.6 1007.3 15.7
2017-Sep-23 06:00S 33°47' W 145°07'0 0.0 1007.3 15.7
2017-Sep-23 05:00S 33°47' W 145°07'1 1.0 1007.1 15.7
2017-Sep-23 04:00S 33°47' W 145°08'1 0.6 1006.8 15.7
2017-Sep-23 03:00S 33°47' W 145°08'0 0.0 1006.1 15.7
2017-Sep-23 02:00S 33°47' W 145°08'1 1.2 1005.8 15.7
2017-Sep-23 01:00S 33°47' W 145°10'0 0.0 1006.0 15.8
2017-Sep-23 00:00S 33°47' W 145°10'3 0.7
2017-Sep-22 20:00S 33°47' W 145°13'1 1.0 1006.9 15.7
2017-Sep-22 19:00S 33°47' W 145°14'0 0.0 1007.1 15.7
2017-Sep-22 18:00S 33°47' W 145°14'2 2.0 1007.0 15.6
2017-Sep-22 17:00S 33°47' W 145°17'1 0.6 1006.6 15.6
2017-Sep-22 16:00S 33°47' W 145°17'1 0.8 1006.2 15.6
2017-Sep-22 15:00S 33°47' W 145°17'1 0.8 1006.0 15.7
2017-Sep-22 14:00S 33°47' W 145°18'1 1.2 1005.5 15.7
2017-Sep-22 13:00S 33°46' W 145°19'0 0.0 1005.5 15.7
2017-Sep-22 12:00S 33°46' W 145°19'0 0.0 1005.9 15.7
2017-Sep-22 11:00S 33°46' W 145°19'2 0.6 1006.3 15.8
2017-Sep-22 08:00S 33°47' W 145°21'1 0.8 1006.6 16.1
2017-Sep-22 07:00S 33°48' W 145°22'1 1.2 1006.6 16.1
2017-Sep-22 06:00S 33°49' W 145°20'2 1.6 1006.5 16.2
2017-Sep-22 05:00S 33°50' W 145°22'0 0.5 1006.1 16.1
2017-Sep-22 04:00S 33°50' W 145°21'1 1.3 1005.9 16.2
2017-Sep-22 03:00S 33°51' W 145°22'0 0.5 1005.5 16.3
2017-Sep-22 02:00S 33°51' W 145°22'4 3.9 1005.2 16.4
2017-Sep-22 01:00S 33°53' W 145°26'0 0.0 1004.9 16.3
2017-Sep-22 00:00S 33°53' W 145°26'0 0.0 1004.9 16.2
2017-Sep-21 19:00S 33°53' W 145°26'1 0.8 1004.6 16.0
2017-Sep-21 18:00S 33°53' W 145°26'1 0.8 1005.5 16.0
2017-Sep-21 17:00S 33°54' W 145°26'2 1.9 1006.7 16.0
2017-Sep-21 16:00S 33°53' W 145°25'1 1.5 1006.8 16.0
2017-Sep-21 15:00S 33°53' W 145°23'1 0.6 1006.8 16.0
2017-Sep-21 14:00S 33°53' W 145°23'0 0.0 1006.9 16.0
2017-Sep-21 13:00S 33°53' W 145°23'0 0.0 1010.1 16.0
2017-Sep-21 12:00S 33°53' W 145°23'1 0.3 1011.3 16.0
2017-Sep-21 08:00S 33°54' W 145°22'0 0.0 1015.5 15.9
2017-Sep-21 07:00S 33°54' W 145°22'0 0.5 1016.3 15.9
2017-Sep-21 06:00S 33°54' W 145°21'1 0.8 1016.8 15.9
2017-Sep-21 05:00S 33°53' W 145°20'0 0.0 1016.4 15.8
2017-Sep-21 04:00S 33°53' W 145°20'1 1.0 1016.4 15.8
2017-Sep-21 03:00S 33°53' W 145°19'1 0.6 1016.9 15.7
2017-Sep-21 02:00S 33°53' W 145°19'0 0.0 1017.5 15.7
2017-Sep-21 01:00S 33°53' W 145°19'0 0.0
2017-Sep-21 00:00S 33°53' W 145°19'2 0.4 1018.1 15.7
2017-Sep-20 20:00S 33°52' W 145°18'1 0.8 1020.0 15.8
2017-Sep-20 19:00S 33°52' W 145°17'1 1.0 1020.3 15.7
2017-Sep-20 18:00S 33°52' W 145°16'0 0.5 1020.1 15.6
2017-Sep-20 17:00S 33°52' W 145°16'1 0.8 1019.9 15.6
2017-Sep-20 16:00S 33°53' W 145°15'1 1.0 1019.3 15.5
2017-Sep-20 15:00S 33°53' W 145°14'0 0.0 1019.0 15.5
2017-Sep-20 14:00S 33°53' W 145°14'1 0.3 1018.5 15.6
2017-Sep-20 12:00S 33°53' W 145°14'1 0.7 1018.6 15.6
2017-Sep-20 10:00S 33°53' W 145°16'1 0.4 1018.9 15.6
2017-Sep-20 08:00S 33°53' W 145°15'0 0.0 1019.2 15.6
2017-Sep-20 07:00S 33°53' W 145°15'0 0.5 1019.1 15.6
2017-Sep-20 06:00S 33°53' W 145°14'1 0.8 1018.3 15.6
2017-Sep-20 05:00S 33°53' W 145°14'0 0.5 1017.9 15.6
2017-Sep-20 04:00S 33°53' W 145°14'0 0.5 1017.2 15.6
2017-Sep-20 03:00S 33°53' W 145°14'1 1.3 1016.4 15.6
2017-Sep-20 02:00S 33°55' W 145°13'0 0.0 1015.7 15.6
2017-Sep-20 01:00S 33°55' W 145°13'0 0.0 1015.2 15.6
2017-Sep-20 00:00S 33°55' W 145°13'4 0.9 1015.1 15.6
2017-Sep-19 19:00S 33°58' W 145°16'0 0.0 1015.1 15.5
2017-Sep-19 18:00S 33°58' W 145°16'1 1.0 1014.8 15.4
2017-Sep-19 17:00S 33°58' W 145°17'1 0.6 1014.2 15.4
2017-Sep-19 16:00S 33°59' W 145°17'1 0.6 1013.4 15.7
2017-Sep-19 15:00S 33°59' W 145°17'2 1.9 1012.9 15.8
2017-Sep-19 14:00S 34°01' W 145°19'0 0.0 1012.4 15.9
2017-Sep-19 13:00S 34°01' W 145°19'2 1.9 1012.2 15.9
2017-Sep-19 12:00S 34°02' W 145°21'3 0.9 1012.4 15.9
2017-Sep-19 09:00S 34°02' W 145°24'0 0.0 1013.2 16.0
2017-Sep-19 08:00S 34°02' W 145°24'2 2.0 1013.5 16.0
2017-Sep-19 07:00S 34°02' W 145°26'0 0.5 1013.5 16.0
2017-Sep-19 06:00S 34°02' W 145°26'2 1.9 1013.4 16.0
2017-Sep-19 05:00S 34°04' W 145°28'1 1.5 1013.3 16.0
2017-Sep-19 04:00S 34°04' W 145°29'1 0.6 1012.9 16.0
2017-Sep-19 03:00S 34°04' W 145°29'3 2.6 1012.7 16.0
2017-Sep-19 02:00S 34°05' W 145°32'0 0.0 1012.5 16.1
2017-Sep-19 01:00S 34°05' W 145°32'1 0.4 1012.6 16.1
2017-Sep-18 23:00S 34°04' W 145°32'3 1.0 1013.7 16.0
2017-Sep-18 20:00S 34°05' W 145°35'1 1.5 1015.6 16.0
2017-Sep-18 19:00S 34°05' W 145°37'0 0.0 1015.9 15.9
2017-Sep-18 18:00S 34°05' W 145°37'1 1.2 1016.0 15.8
2017-Sep-18 17:00S 34°05' W 145°38'1 0.8 1015.9 15.8
2017-Sep-18 16:00S 34°05' W 145°39'0 0.0 1015.7 15.8
2017-Sep-18 15:00S 34°05' W 145°39'1 1.0 1015.6 15.9
2017-Sep-18 14:00S 34°05' W 145°40'3 2.6 1015.3 15.9
2017-Sep-18 13:00S 34°04' W 145°43'0 0.0 1015.4 15.9
2017-Sep-18 12:00S 34°04' W 145°43'0 0.0 1015.6 15.9
2017-Sep-18 11:00S 34°04' W 145°43'1 0.2 1016.0 15.9
2017-Sep-18 07:00S 34°04' W 145°44'1 0.6 1017.0 15.9
2017-Sep-18 06:00S 34°04' W 145°44'1 1.0 1017.0 15.9
2017-Sep-18 05:00S 34°04' W 145°45'1 1.0 1016.9 15.9
2017-Sep-18 04:00S 34°04' W 145°46'2 2.5 1016.5 16.0
2017-Sep-18 03:00S 34°04' W 145°49'0 0.0 1016.0 16.0
2017-Sep-18 02:00S 34°04' W 145°49'0 0.0 1015.7 16.0
2017-Sep-18 01:00S 34°04' W 145°49'0 0.0 1015.3 16.1
2017-Sep-18 00:00S 34°04' W 145°49'2 2.3 1015.3 16.1
2017-Sep-17 23:00S 34°03' W 145°52'2 0.4 1015.7 16.0
2017-Sep-17 19:00S 34°02' W 145°53'2 2.5 1015.9 15.9
2017-Sep-17 18:00S 34°02' W 145°56'0 0.5 1015.9 15.8
2017-Sep-17 17:00S 34°02' W 145°56'0 0.0 1015.4 15.8
2017-Sep-17 16:00S 34°02' W 145°56'0 0.5 1014.8 15.8
2017-Sep-17 15:00S 34°02' W 145°56'1 1.2 1014.4 15.8
2017-Sep-17 14:00S 34°03' W 145°58'0 0.0 1014.2 15.9
2017-Sep-17 13:00S 34°03' W 145°58'2 1.6 1013.9 15.8
2017-Sep-17 12:00S 34°04' W 145°59'2 0.8 1013.8 15.8
2017-Sep-17 10:00S 34°04' W 146°01'1 0.6 1014.0 15.8
2017-Sep-17 08:00S 34°05' W 146°02'1 0.8 1014.1 15.8
2017-Sep-17 07:00S 34°05' W 146°03'2 1.6 1014.0 15.8
2017-Sep-17 06:00S 34°06' W 146°05'0 0.5 1013.7 15.9
2017-Sep-17 05:00S 34°06' W 146°05'0 0.0 1013.5 16.0
2017-Sep-17 04:00S 34°06' W 146°05'1 1.2 1013.0 16.0
2017-Sep-17 03:00S 34°07' W 146°05'1 1.0 1012.3 16.1
2017-Sep-17 02:00S 34°07' W 146°07'2 1.6 1012.1 16.1
2017-Sep-17 01:00S 34°08' W 146°08'0 0.0 1011.6 16.1
2017-Sep-17 00:00S 34°08' W 146°08'0 0.0 1011.6 16.1
2017-Sep-16 23:00S 34°08' W 146°08'3 0.6 1011.8 16.1
2017-Sep-16 19:00S 34°08' W 146°11'1 0.8 1012.6 16.1
2017-Sep-16 18:00S 34°09' W 146°12'0 0.0 1012.4 16.1
2017-Sep-16 17:00S 34°09' W 146°12'1 1.2 1011.9 16.1
2017-Sep-16 16:00S 34°10' W 146°13'0 0.0 1011.3 16.1
2017-Sep-16 15:00S 34°10' W 146°13'1 0.8 1010.7 16.1
2017-Sep-16 14:00S 34°10' W 146°14'0 0.0 1010.1 16.1
2017-Sep-16 13:00S 34°10' W 146°14'1 0.6 1010.2 16.1
2017-Sep-16 11:00S 34°11' W 146°15'4 0.9 1011.0 16.1
2017-Sep-16 07:00S 34°11' W 146°19'1 1.0 1012.5 16.1
2017-Sep-16 06:00S 34°11' W 146°20'1 0.8 1012.9 16.1
2017-Sep-16 05:00S 34°12' W 146°21'0 0.5 1013.4 16.1
2017-Sep-16 04:00S 34°12' W 146°22'0 0.0 1013.2 16.1
2017-Sep-16 03:00S 34°12' W 146°22'1 1.0 1013.2 16.1
2017-Sep-16 02:00S 34°12' W 146°23'1 1.2 1012.8 16.1
2017-Sep-16 01:00S 34°11' W 146°24'0 0.0 1013.8 16.2
2017-Sep-16 00:00S 34°11' W 146°24'2 0.5 1013.7 16.1
2017-Sep-15 20:00S 34°10' W 146°25'0 0.5 1016.9 16.1
2017-Sep-15 19:00S 34°10' W 146°26'1 0.8 1017.7 16.1
2017-Sep-15 18:00S 34°09' W 146°25'   1017.4 16.1
Track history (hours):
 
Tides and Currents Weather Stations Pressure Air Temp Water Temp Dewpoint Dewpoint Depression Visibility Wind Speed Wind Dir Waves Ship Positions

Drifting buoy 54955

Last reported at 2017-Sep-25 18:00 UTC. Time now 2017-Sep-25 19:04 UTC.
Position S 33°55' W 144°37'.

Barometer 1013.1 mb
Water temperature 16.0 ° C

Date/timePositionNaut miles runAvg speedWind from/ knotsBaromVisibWave heightAir tempDewpointWater temp
2017-Sep-25 18:00S 33°55' W 144°37'1 0.6 1013.1 16.0
2017-Sep-25 17:00S 33°56' W 144°37'1 0.6 1013.0 16.0
2017-Sep-25 16:00S 33°56' W 144°37'0 0.5 1012.6 16.0
2017-Sep-25 15:00S 33°56' W 144°38'0 0.0 1012.0 16.0
2017-Sep-25 14:00S 33°56' W 144°38'1 0.6 1011.3 15.9
2017-Sep-25 13:00S 33°57' W 144°38'0 0.0 1010.9 15.9
2017-Sep-25 12:00S 33°57' W 144°38'0 0.5 1011.0 15.9
2017-Sep-25 11:00S 33°57' W 144°38'1 0.3 1011.0 15.9
2017-Sep-25 07:00S 33°58' W 144°38'2 2.3 1011.1 15.9
2017-Sep-25 06:00S 33°59' W 144°40'0 0.0 1010.9 15.9
2017-Sep-25 05:00S 33°59' W 144°40'0 0.5 1010.8 16.0
2017-Sep-25 04:00S 33°59' W 144°40'1 0.8 1010.2 16.0
2017-Sep-25 03:00S 34°00' W 144°40'1 1.5 1009.6 16.0
2017-Sep-25 02:00S 34°00' W 144°42'0 0.0 1009.1 16.0
2017-Sep-25 01:00S 34°00' W 144°42'0 0.0 1008.9 16.0
2017-Sep-25 00:00S 34°00' W 144°42'0 0.0 1008.5 16.0
2017-Sep-24 23:00S 34°00' W 144°42'3 0.7 1009.0 16.0
2017-Sep-24 19:00S 34°00' W 144°46'1 1.5 1010.0 16.0
2017-Sep-24 18:00S 34°00' W 144°47'0 0.5 1009.8 16.0
2017-Sep-24 17:00S 34°00' W 144°48'1 0.8 1009.6 16.0
2017-Sep-24 16:00S 33°59' W 144°47'3 2.6 1009.2 16.0
2017-Sep-24 15:00S 33°59' W 144°50'0 0.0 1008.7 16.0
2017-Sep-24 14:00S 33°59' W 144°50'0 0.0 1008.3 16.0
2017-Sep-24 13:00S 33°59' W 144°50'1 1.3 1008.6 16.0
2017-Sep-24 12:00S 33°58' W 144°51'2 2.4 1009.4 16.0
2017-Sep-24 11:00S 33°55' W 144°51'0 0.0 1010.3 16.0
2017-Sep-24 09:00S 33°55' W 144°51'1 0.6 1011.1 15.8
2017-Sep-24 08:00S 33°55' W 144°51'1 1.2 1011.3 15.8
2017-Sep-24 07:00S 33°55' W 144°52'1 0.6 1011.5 15.8
2017-Sep-24 06:00S 33°55' W 144°52'0 0.0 1011.3 15.9
2017-Sep-24 05:00S 33°55' W 144°52'1 1.0 1011.1 15.9
2017-Sep-24 04:00S 33°55' W 144°53'1 1.2 1010.4 15.9
2017-Sep-24 03:00S 33°54' W 144°55'0 0.5 1010.2 16.0
2017-Sep-24 02:00S 33°54' W 144°54'1 1.2 1009.8 16.0
2017-Sep-24 01:00S 33°53' W 144°55'0 0.0 1009.7 16.0
2017-Sep-24 00:00S 33°53' W 144°55'4 0.8 1009.7 15.9
2017-Sep-23 19:00S 33°50' W 144°58'0 0.0 1010.5 15.8
2017-Sep-23 18:00S 33°50' W 144°58'0 0.5 1010.3 15.8
2017-Sep-23 17:00S 33°50' W 144°59'1 0.6 1010.0 15.8
2017-Sep-23 16:00S 33°50' W 144°59'0 0.5 1009.2 15.7
2017-Sep-23 15:00S 33°50' W 144°59'1 1.2 1008.9 15.7
2017-Sep-23 14:00S 33°49' W 145°01'1 1.5 1008.2 15.7
2017-Sep-23 13:00S 33°49' W 145°02'0 0.0 1007.8 15.6
2017-Sep-23 12:00S 33°49' W 145°02'4 0.8 1007.8 15.6
2017-Sep-23 07:00S 33°48' W 145°07'1 0.6 1007.3 15.7
2017-Sep-23 06:00S 33°47' W 145°07'0 0.0 1007.3 15.7
2017-Sep-23 05:00S 33°47' W 145°07'1 1.0 1007.1 15.7
2017-Sep-23 04:00S 33°47' W 145°08'1 0.6 1006.8 15.7
2017-Sep-23 03:00S 33°47' W 145°08'0 0.0 1006.1 15.7
2017-Sep-23 02:00S 33°47' W 145°08'1 1.2 1005.8 15.7
2017-Sep-23 01:00S 33°47' W 145°10'0 0.0 1006.0 15.8
2017-Sep-23 00:00S 33°47' W 145°10'3 0.7
2017-Sep-22 20:00S 33°47' W 145°13'1 1.0 1006.9 15.7
2017-Sep-22 19:00S 33°47' W 145°14'0 0.0 1007.1 15.7
2017-Sep-22 18:00S 33°47' W 145°14'2 2.0 1007.0 15.6
2017-Sep-22 17:00S 33°47' W 145°17'1 0.6 1006.6 15.6
2017-Sep-22 16:00S 33°47' W 145°17'1 0.8 1006.2 15.6
2017-Sep-22 15:00S 33°47' W 145°17'1 0.8 1006.0 15.7
2017-Sep-22 14:00S 33°47' W 145°18'1 1.2 1005.5 15.7
2017-Sep-22 13:00S 33°46' W 145°19'0 0.0 1005.5 15.7
2017-Sep-22 12:00S 33°46' W 145°19'0 0.0 1005.9 15.7
2017-Sep-22 11:00S 33°46' W 145°19'2 0.6 1006.3 15.8
2017-Sep-22 08:00S 33°47' W 145°21'1 0.8 1006.6 16.1
2017-Sep-22 07:00S 33°48' W 145°22'1 1.2 1006.6 16.1
2017-Sep-22 06:00S 33°49' W 145°20'2 1.6 1006.5 16.2
2017-Sep-22 05:00S 33°50' W 145°22'0 0.5 1006.1 16.1
2017-Sep-22 04:00S 33°50' W 145°21'1 1.3 1005.9 16.2
2017-Sep-22 03:00S 33°51' W 145°22'0 0.5 1005.5 16.3
2017-Sep-22 02:00S 33°51' W 145°22'4 3.9 1005.2 16.4
2017-Sep-22 01:00S 33°53' W 145°26'0 0.0 1004.9 16.3
2017-Sep-22 00:00S 33°53' W 145°26'0 0.0 1004.9 16.2
2017-Sep-21 19:00S 33°53' W 145°26'1 0.8 1004.6 16.0
2017-Sep-21 18:00S 33°53' W 145°26'1 0.8 1005.5 16.0
2017-Sep-21 17:00S 33°54' W 145°26'2 1.9 1006.7 16.0
2017-Sep-21 16:00S 33°53' W 145°25'1 1.5 1006.8 16.0
2017-Sep-21 15:00S 33°53' W 145°23'1 0.6 1006.8 16.0
2017-Sep-21 14:00S 33°53' W 145°23'0 0.0 1006.9 16.0
2017-Sep-21 13:00S 33°53' W 145°23'0 0.0 1010.1 16.0
2017-Sep-21 12:00S 33°53' W 145°23'1 0.3 1011.3 16.0
2017-Sep-21 08:00S 33°54' W 145°22'0 0.0 1015.5 15.9
2017-Sep-21 07:00S 33°54' W 145°22'0 0.5 1016.3 15.9
2017-Sep-21 06:00S 33°54' W 145°21'1 0.8 1016.8 15.9
2017-Sep-21 05:00S 33°53' W 145°20'0 0.0 1016.4 15.8
2017-Sep-21 04:00S 33°53' W 145°20'1 1.0 1016.4 15.8
2017-Sep-21 03:00S 33°53' W 145°19'1 0.6 1016.9 15.7
2017-Sep-21 02:00S 33°53' W 145°19'0 0.0 1017.5 15.7
2017-Sep-21 01:00S 33°53' W 145°19'0 0.0
2017-Sep-21 00:00S 33°53' W 145°19'2 0.4 1018.1 15.7
2017-Sep-20 20:00S 33°52' W 145°18'1 0.8 1020.0 15.8
2017-Sep-20 19:00S 33°52' W 145°17'1 1.0 1020.3 15.7
2017-Sep-20 18:00S 33°52' W 145°16'0 0.5 1020.1 15.6
2017-Sep-20 17:00S 33°52' W 145°16'1 0.8 1019.9 15.6
2017-Sep-20 16:00S 33°53' W 145°15'1 1.0 1019.3 15.5
2017-Sep-20 15:00S 33°53' W 145°14'0 0.0 1019.0 15.5
2017-Sep-20 14:00S 33°53' W 145°14'1 0.3 1018.5 15.6
2017-Sep-20 12:00S 33°53' W 145°14'1 0.7 1018.6 15.6
2017-Sep-20 10:00S 33°53' W 145°16'1 0.4 1018.9 15.6
2017-Sep-20 08:00S 33°53' W 145°15'0 0.0 1019.2 15.6
2017-Sep-20 07:00S 33°53' W 145°15'0 0.5 1019.1 15.6
2017-Sep-20 06:00S 33°53' W 145°14'1 0.8 1018.3 15.6
2017-Sep-20 05:00S 33°53' W 145°14'0 0.5 1017.9 15.6
2017-Sep-20 04:00S 33°53' W 145°14'0 0.5 1017.2 15.6
2017-Sep-20 03:00S 33°53' W 145°14'1 1.3 1016.4 15.6
2017-Sep-20 02:00S 33°55' W 145°13'0 0.0 1015.7 15.6
2017-Sep-20 01:00S 33°55' W 145°13'0 0.0 1015.2 15.6
2017-Sep-20 00:00S 33°55' W 145°13'4 0.9 1015.1 15.6
2017-Sep-19 19:00S 33°58' W 145°16'0 0.0 1015.1 15.5
2017-Sep-19 18:00S 33°58' W 145°16'1 1.0 1014.8 15.4
2017-Sep-19 17:00S 33°58' W 145°17'1 0.6 1014.2 15.4
2017-Sep-19 16:00S 33°59' W 145°17'1 0.6 1013.4 15.7
2017-Sep-19 15:00S 33°59' W 145°17'2 1.9 1012.9 15.8
2017-Sep-19 14:00S 34°01' W 145°19'0 0.0 1012.4 15.9
2017-Sep-19 13:00S 34°01' W 145°19'2 1.9 1012.2 15.9
2017-Sep-19 12:00S 34°02' W 145°21'3 0.9 1012.4 15.9
2017-Sep-19 09:00S 34°02' W 145°24'0 0.0 1013.2 16.0
2017-Sep-19 08:00S 34°02' W 145°24'2 2.0 1013.5 16.0
2017-Sep-19 07:00S 34°02' W 145°26'0 0.5 1013.5 16.0
2017-Sep-19 06:00S 34°02' W 145°26'2 1.9 1013.4 16.0
2017-Sep-19 05:00S 34°04' W 145°28'1 1.5 1013.3 16.0
2017-Sep-19 04:00S 34°04' W 145°29'1 0.6 1012.9 16.0
2017-Sep-19 03:00S 34°04' W 145°29'3 2.6 1012.7 16.0
2017-Sep-19 02:00S 34°05' W 145°32'0 0.0 1012.5 16.1
2017-Sep-19 01:00S 34°05' W 145°32'1 0.4 1012.6 16.1
2017-Sep-18 23:00S 34°04' W 145°32'3 1.0 1013.7 16.0
2017-Sep-18 20:00S 34°05' W 145°35'1 1.5 1015.6 16.0
2017-Sep-18 19:00S 34°05' W 145°37'0 0.0 1015.9 15.9
2017-Sep-18 18:00S 34°05' W 145°37'1 1.2 1016.0 15.8
2017-Sep-18 17:00S 34°05' W 145°38'1 0.8 1015.9 15.8
2017-Sep-18 16:00S 34°05' W 145°39'0 0.0 1015.7 15.8
2017-Sep-18 15:00S 34°05' W 145°39'1 1.0 1015.6 15.9
2017-Sep-18 14:00S 34°05' W 145°40'3 2.6 1015.3 15.9
2017-Sep-18 13:00S 34°04' W 145°43'0 0.0 1015.4 15.9
2017-Sep-18 12:00S 34°04' W 145°43'0 0.0 1015.6 15.9
2017-Sep-18 11:00S 34°04' W 145°43'1 0.2 1016.0 15.9
2017-Sep-18 07:00S 34°04' W 145°44'1 0.6 1017.0 15.9
2017-Sep-18 06:00S 34°04' W 145°44'1 1.0 1017.0 15.9
2017-Sep-18 05:00S 34°04' W 145°45'1 1.0 1016.9 15.9
2017-Sep-18 04:00S 34°04' W 145°46'2 2.5 1016.5 16.0
2017-Sep-18 03:00S 34°04' W 145°49'0 0.0 1016.0 16.0
2017-Sep-18 02:00S 34°04' W 145°49'0 0.0 1015.7 16.0
2017-Sep-18 01:00S 34°04' W 145°49'0 0.0 1015.3 16.1
2017-Sep-18 00:00S 34°04' W 145°49'2 2.3 1015.3 16.1
2017-Sep-17 23:00S 34°03' W 145°52'2 0.4 1015.7 16.0
2017-Sep-17 19:00S 34°02' W 145°53'2 2.5 1015.9 15.9
2017-Sep-17 18:00S 34°02' W 145°56'0 0.5 1015.9 15.8
2017-Sep-17 17:00S 34°02' W 145°56'0 0.0 1015.4 15.8
2017-Sep-17 16:00S 34°02' W 145°56'0 0.5 1014.8 15.8
2017-Sep-17 15:00S 34°02' W 145°56'1 1.2 1014.4 15.8
2017-Sep-17 14:00S 34°03' W 145°58'0 0.0 1014.2 15.9
2017-Sep-17 13:00S 34°03' W 145°58'2 1.6 1013.9 15.8
2017-Sep-17 12:00S 34°04' W 145°59'2 0.8 1013.8 15.8
2017-Sep-17 10:00S 34°04' W 146°01'1 0.6 1014.0 15.8
2017-Sep-17 08:00S 34°05' W 146°02'1 0.8 1014.1 15.8
2017-Sep-17 07:00S 34°05' W 146°03'2 1.6 1014.0 15.8
2017-Sep-17 06:00S 34°06' W 146°05'0 0.5 1013.7 15.9
2017-Sep-17 05:00S 34°06' W 146°05'0 0.0 1013.5 16.0
2017-Sep-17 04:00S 34°06' W 146°05'1 1.2 1013.0 16.0
2017-Sep-17 03:00S 34°07' W 146°05'1 1.0 1012.3 16.1
2017-Sep-17 02:00S 34°07' W 146°07'2 1.6 1012.1 16.1
2017-Sep-17 01:00S 34°08' W 146°08'0 0.0 1011.6 16.1
2017-Sep-17 00:00S 34°08' W 146°08'0 0.0 1011.6 16.1
2017-Sep-16 23:00S 34°08' W 146°08'3 0.6 1011.8 16.1
2017-Sep-16 19:00S 34°08' W 146°11'1 0.8 1012.6 16.1
2017-Sep-16 18:00S 34°09' W 146°12'0 0.0 1012.4 16.1
2017-Sep-16 17:00S 34°09' W 146°12'1 1.2 1011.9 16.1
2017-Sep-16 16:00S 34°10' W 146°13'0 0.0 1011.3 16.1
2017-Sep-16 15:00S 34°10' W 146°13'1 0.8 1010.7 16.1
2017-Sep-16 14:00S 34°10' W 146°14'0 0.0 1010.1 16.1
2017-Sep-16 13:00S 34°10' W 146°14'1 0.6 1010.2 16.1
2017-Sep-16 11:00S 34°11' W 146°15'4 0.9 1011.0 16.1
2017-Sep-16 07:00S 34°11' W 146°19'1 1.0 1012.5 16.1
2017-Sep-16 06:00S 34°11' W 146°20'1 0.8 1012.9 16.1
2017-Sep-16 05:00S 34°12' W 146°21'0 0.5 1013.4 16.1
2017-Sep-16 04:00S 34°12' W 146°22'0 0.0 1013.2 16.1
2017-Sep-16 03:00S 34°12' W 146°22'1 1.0 1013.2 16.1
2017-Sep-16 02:00S 34°12' W 146°23'1 1.2 1012.8 16.1
2017-Sep-16 01:00S 34°11' W 146°24'0 0.0 1013.8 16.2
2017-Sep-16 00:00S 34°11' W 146°24'2 0.5 1013.7 16.1
2017-Sep-15 20:00S 34°10' W 146°25'0 0.5 1016.9 16.1
2017-Sep-15 19:00S 34°10' W 146°26'1 0.8 1017.7 16.1
2017-Sep-15 18:00S 34°09' W 146°25'   1017.4 16.1

Dump ship's entire track history